createdAt,value
2023-02-06T00:02:06.316Z,2.58
2023-02-06T00:04:38.876Z,2.52
2023-02-06T00:07:11.429Z,2.52
2023-02-06T00:09:43.894Z,2.35
2023-02-06T00:12:16.493Z,2.32
2023-02-06T00:14:48.967Z,2.45
2023-02-06T00:17:21.508Z,2.47
2023-02-06T00:19:53.974Z,2.39
2023-02-06T00:22:26.507Z,2.36
2023-02-06T00:24:59.328Z,2.44
2023-02-06T00:27:32.119Z,2.45
2023-02-06T00:30:05.317Z,2.38
2023-02-06T00:32:38.183Z,2.35
2023-02-06T00:35:10.716Z,2.36
2023-02-06T00:37:43.163Z,2.37
2023-02-06T00:40:15.762Z,2.42
2023-02-06T00:42:48.318Z,2.36
2023-02-06T00:45:20.936Z,2.31
2023-02-06T00:47:53.477Z,2.23
2023-02-06T00:50:26.047Z,2.14
2023-02-06T00:52:58.549Z,2.06
2023-02-06T00:55:31.040Z,1.92
2023-02-06T00:58:03.567Z,1.78
2023-02-06T01:00:36.203Z,1.67
2023-02-06T01:03:08.955Z,1.54
2023-02-06T01:05:41.475Z,1.47
2023-02-06T01:08:14.524Z,1.37
2023-02-06T01:10:47.039Z,1.49
2023-02-06T01:13:19.776Z,1.44
2023-02-06T01:15:52.527Z,1.44
2023-02-06T01:18:25.095Z,1.37
2023-02-06T01:20:57.559Z,1.28
2023-02-06T01:23:30.044Z,1.20
2023-02-06T01:26:10.184Z,1.10
2023-02-06T01:28:45.692Z,1.00
2023-02-06T01:31:26.631Z,0.98
2023-02-06T01:34:00.612Z,0.94
2023-02-06T01:36:33.134Z,0.89
2023-02-06T01:39:07.774Z,0.85
2023-02-06T01:41:40.341Z,0.71
2023-02-06T01:44:23.568Z,0.72
2023-02-06T01:46:58.339Z,0.57
2023-02-06T01:49:36.061Z,0.64
2023-02-06T01:52:26.803Z,0.62
2023-02-06T01:55:04.675Z,0.74
2023-02-06T01:57:39.097Z,0.92
2023-02-06T02:00:12.512Z,0.78
2023-02-06T02:02:49.063Z,0.86
2023-02-06T02:05:21.760Z,1.14
2023-02-06T02:08:02.076Z,1.19
2023-02-06T02:10:35.129Z,1.06
2023-02-06T02:13:07.732Z,1.23
2023-02-06T02:16:23.096Z,1.29
2023-02-06T02:19:51.894Z,1.24
2023-02-06T02:22:36.014Z,1.47
2023-02-06T02:25:42.337Z,1.49
2023-02-06T02:28:55.266Z,1.63
2023-02-06T02:32:43.899Z,1.66
2023-02-06T02:35:36.137Z,1.62
2023-02-06T02:38:50.272Z,1.65
2023-02-06T02:41:53.887Z,1.69
2023-02-06T02:44:43.608Z,1.69
2023-02-06T02:47:21.411Z,1.66
2023-02-06T02:49:54.841Z,1.54
2023-02-06T02:52:28.964Z,1.58
2023-02-06T02:55:01.447Z,1.47
2023-02-06T02:57:34.129Z,1.41
2023-02-06T03:00:08.635Z,1.52
2023-02-06T03:02:42.910Z,1.52
2023-02-06T03:05:20.746Z,1.58
2023-02-06T03:08:26.659Z,1.58
2023-02-06T03:11:12.879Z,1.59
2023-02-06T03:14:05.936Z,1.59
2023-02-06T03:16:47.769Z,1.53
2023-02-06T03:19:32.125Z,1.62
2023-02-06T03:22:05.659Z,1.66
2023-02-06T03:24:39.754Z,1.59
2023-02-06T03:27:17.433Z,1.65
2023-02-06T03:29:54.236Z,1.60
2023-02-06T03:32:34.156Z,1.61
2023-02-06T03:35:30.935Z,1.66
2023-02-06T03:38:07.625Z,1.57
2023-02-06T03:40:47.300Z,1.63
2023-02-06T03:43:24.680Z,1.65
2023-02-06T03:46:04.494Z,1.67
2023-02-06T03:48:44.292Z,1.65
2023-02-06T03:51:27.768Z,1.63
2023-02-06T03:54:05.480Z,1.62
2023-02-06T03:56:52.573Z,1.57
2023-02-06T03:59:25.312Z,1.45
2023-02-06T04:02:03.424Z,1.52
2023-02-06T04:04:42.343Z,1.45
2023-02-06T04:07:25.351Z,1.44
2023-02-06T04:09:57.880Z,1.44
2023-02-06T04:12:30.471Z,1.39
2023-02-06T04:15:03.290Z,1.26
2023-02-06T04:17:53.597Z,1.22
2023-02-06T04:20:30.203Z,1.11
2023-02-06T04:23:02.680Z,1.11
2023-02-06T04:25:35.837Z,1.07
2023-02-06T04:28:08.777Z,1.04
2023-02-06T04:30:41.523Z,0.96
2023-02-06T04:33:14.068Z,0.93
2023-02-06T04:35:48.848Z,0.86
2023-02-06T04:38:21.420Z,0.85
2023-02-06T04:40:54.018Z,0.81
2023-02-06T04:43:26.623Z,0.78
2023-02-06T04:45:59.374Z,0.74
2023-02-06T04:48:31.875Z,0.69
2023-02-06T04:51:04.956Z,0.61
2023-02-06T04:53:37.501Z,0.60
2023-02-06T04:56:12.797Z,0.71
2023-02-06T04:58:45.316Z,0.66
2023-02-06T05:01:18.178Z,0.67
2023-02-06T05:03:50.952Z,0.77
2023-02-06T05:06:23.601Z,0.76
2023-02-06T05:08:56.194Z,0.71
2023-02-06T05:11:28.719Z,0.69
2023-02-06T05:14:01.220Z,0.71
2023-02-06T05:16:33.744Z,0.68
2023-02-06T05:19:06.323Z,0.68
2023-02-06T05:21:38.960Z,0.70
2023-02-06T05:24:11.975Z,0.72
2023-02-06T05:26:46.456Z,0.74
2023-02-06T05:29:18.995Z,0.72
2023-02-06T05:31:52.109Z,0.74
2023-02-06T05:34:24.794Z,0.79
2023-02-06T05:36:57.419Z,0.80
2023-02-06T05:39:29.955Z,0.71
2023-02-06T05:42:02.559Z,0.77
2023-02-06T05:44:35.103Z,0.77
2023-02-06T05:47:07.663Z,0.74
2023-02-06T05:49:40.194Z,0.62
2023-02-06T05:52:12.704Z,0.72
2023-02-06T05:54:45.187Z,0.59
2023-02-06T05:57:17.699Z,0.51
2023-02-06T05:59:50.196Z,0.66
2023-02-06T06:02:22.824Z,0.67
2023-02-06T06:04:55.358Z,0.63
2023-02-06T06:07:27.843Z,0.65
2023-02-06T06:10:00.399Z,0.55
2023-02-06T06:12:33.050Z,0.50
2023-02-06T06:15:06.336Z,0.50
2023-02-06T06:17:38.974Z,0.24
2023-02-06T06:20:11.870Z,0.38
2023-02-06T06:22:44.393Z,0.23
2023-02-06T06:25:17.053Z,0.33
2023-02-06T06:27:49.663Z,0.38
2023-02-06T06:30:22.211Z,0.43
2023-02-06T06:32:54.768Z,0.36
2023-02-06T06:35:27.366Z,0.29
2023-02-06T06:38:00.000Z,0.22
2023-02-06T06:40:32.459Z,0.22
2023-02-06T06:43:04.933Z,0.36
2023-02-06T06:45:37.769Z,0.36
2023-02-06T06:48:10.504Z,0.29
2023-02-06T06:50:43.224Z,0.31
2023-02-06T06:53:16.436Z,0.37
2023-02-06T06:55:49.057Z,0.35
2023-02-06T06:58:21.646Z,0.34
2023-02-06T07:00:54.179Z,0.25
2023-02-06T07:03:26.758Z,0.37
2023-02-06T07:05:59.265Z,0.44
2023-02-06T07:08:32.223Z,0.52
2023-02-06T07:11:04.949Z,0.54
2023-02-06T07:13:37.923Z,0.53
2023-02-06T07:16:12.114Z,0.39
2023-02-06T07:18:44.693Z,0.31
2023-02-06T07:21:19.716Z,0.37
2023-02-06T07:23:52.233Z,0.59
2023-02-06T07:26:24.711Z,0.46
2023-02-06T07:28:57.263Z,0.60
2023-02-06T07:31:29.808Z,0.69
2023-02-06T07:34:02.405Z,0.63
2023-02-06T07:36:35.626Z,0.58
2023-02-06T07:39:08.522Z,0.73
2023-02-06T07:41:41.346Z,0.87
2023-02-06T07:44:14.640Z,1.01
2023-02-06T07:46:47.741Z,1.06
2023-02-06T07:49:20.387Z,0.96
2023-02-06T07:51:52.972Z,1.11
2023-02-06T07:54:25.468Z,1.00
2023-02-06T07:56:58.083Z,1.03
2023-02-06T07:59:30.595Z,1.17
2023-02-06T08:02:03.205Z,1.34
2023-02-06T08:04:36.068Z,1.34
2023-02-06T08:07:11.158Z,1.46
2023-02-06T08:09:44.009Z,1.34
2023-02-06T08:12:16.572Z,1.38
2023-02-06T08:14:49.184Z,1.24
2023-02-06T08:17:21.918Z,1.38
2023-02-06T08:19:54.518Z,1.52
2023-02-06T08:22:29.532Z,1.86
2023-02-06T08:25:02.018Z,1.93
2023-02-06T08:27:34.589Z,1.79
2023-02-06T08:30:08.210Z,1.97
2023-02-06T08:32:40.719Z,2.20
2023-02-06T08:35:13.392Z,2.28
2023-02-06T08:37:45.887Z,2.33
2023-02-06T08:40:18.888Z,2.33
2023-02-06T08:42:52.022Z,2.36
2023-02-06T08:45:24.533Z,2.33
2023-02-06T08:47:57.081Z,2.37
2023-02-06T08:50:29.590Z,2.46
2023-02-06T08:53:03.068Z,2.60
2023-02-06T08:55:35.777Z,2.66
2023-02-06T08:58:08.363Z,2.55
2023-02-06T09:00:40.914Z,2.63
2023-02-06T09:03:14.041Z,2.36
2023-02-06T09:05:46.817Z,2.54
2023-02-06T09:08:19.369Z,2.76
2023-02-06T09:10:51.894Z,2.74
2023-02-06T09:13:25.723Z,2.85
2023-02-06T09:15:58.536Z,3.17
2023-02-06T09:18:31.384Z,3.21
2023-02-06T09:21:17.693Z,3.39
2023-02-06T09:23:59.867Z,3.66
2023-02-06T09:26:53.454Z,3.71
2023-02-06T09:29:31.857Z,3.85
2023-02-06T09:32:04.874Z,3.72
2023-02-06T09:34:37.363Z,3.62
2023-02-06T09:37:09.847Z,3.56
2023-02-06T09:39:42.340Z,3.29
2023-02-06T09:42:30.143Z,3.62
2023-02-06T09:45:19.392Z,3.73
2023-02-06T09:48:20.377Z,3.87
2023-02-06T09:51:16.585Z,4.01
2023-02-06T09:54:45.778Z,3.89
2023-02-06T09:57:46.248Z,4.16
2023-02-06T10:00:50.328Z,4.11
2023-02-06T10:04:00.625Z,4.38
2023-02-06T10:06:45.203Z,4.34
2023-02-06T10:09:29.403Z,3.74
2023-02-06T10:12:13.528Z,4.39
2023-02-06T10:14:58.897Z,4.57
2023-02-06T10:17:41.859Z,4.81
2023-02-06T10:20:39.540Z,5.01
2023-02-06T10:23:27.022Z,5.24
2023-02-06T10:26:18.099Z,5.48
2023-02-06T10:28:56.941Z,5.52
2023-02-06T10:32:00.306Z,5.71
2023-02-06T10:35:01.073Z,5.73
2023-02-06T10:37:51.499Z,5.70
2023-02-06T10:40:38.011Z,5.83
2023-02-06T10:43:40.387Z,5.82
2023-02-06T10:46:35.683Z,5.30
2023-02-06T10:49:21.893Z,5.51
2023-02-06T10:52:01.072Z,5.53
2023-02-06T10:54:42.832Z,5.40
2023-02-06T10:57:22.004Z,5.41
2023-02-06T11:00:00.630Z,5.49
2023-02-06T11:03:06.636Z,5.57
2023-02-06T11:05:41.451Z,5.60
2023-02-06T11:08:27.108Z,5.72
2023-02-06T11:11:24.225Z,5.92
2023-02-06T11:14:07.644Z,5.43
2023-02-06T11:16:41.788Z,5.89
2023-02-06T11:19:40.383Z,5.89
2023-02-06T11:22:16.716Z,6.13
2023-02-06T11:25:25.781Z,6.44
2023-02-06T11:28:01.305Z,6.52
2023-02-06T11:30:41.039Z,6.63
2023-02-06T11:33:45.764Z,6.83
2023-02-06T11:36:29.492Z,7.17
2023-02-06T11:39:22.083Z,6.90
2023-02-06T11:42:01.055Z,7.01
2023-02-06T11:44:43.479Z,6.93
2023-02-06T11:47:37.686Z,7.04
2023-02-06T11:50:13.361Z,6.89
2023-02-06T11:52:47.238Z,7.12
2023-02-06T11:55:34.507Z,7.04
2023-02-06T11:58:13.145Z,6.98
2023-02-06T12:00:51.683Z,6.92
2023-02-06T12:03:30.924Z,6.80
2023-02-06T12:06:21.803Z,6.85
2023-02-06T12:09:02.614Z,6.68
2023-02-06T12:12:11.255Z,6.78
2023-02-06T12:14:52.790Z,7.08
2023-02-06T12:17:38.719Z,6.96
2023-02-06T12:20:26.884Z,7.10
2023-02-06T12:23:15.333Z,7.37
2023-02-06T12:25:55.324Z,7.22
2023-02-06T12:28:40.792Z,7.24
2023-02-06T12:31:22.035Z,7.30
2023-02-06T12:34:20.116Z,7.40
2023-02-06T12:37:21.727Z,7.28
2023-02-06T12:39:54.476Z,7.15
2023-02-06T12:42:43.689Z,7.43
2023-02-06T12:45:34.950Z,7.16
2023-02-06T12:48:30.013Z,7.26
2023-02-06T12:51:23.002Z,7.15
2023-02-06T12:54:03.872Z,7.26
2023-02-06T12:56:57.278Z,7.34
2023-02-06T13:00:02.668Z,7.59
2023-02-06T13:03:41.294Z,7.91
2023-02-06T13:06:21.378Z,8.22
2023-02-06T13:09:06.337Z,8.42
2023-02-06T13:11:40.862Z,8.46
2023-02-06T13:14:27.129Z,8.26
2023-02-06T13:17:11.687Z,8.44
2023-02-06T13:19:44.566Z,8.30
2023-02-06T13:22:18.918Z,8.27
2023-02-06T13:24:51.986Z,7.98
2023-02-06T13:27:37.627Z,8.03
2023-02-06T13:30:23.757Z,8.17
2023-02-06T13:33:24.617Z,8.06
2023-02-06T13:36:15.917Z,7.88
2023-02-06T13:38:48.504Z,8.20
2023-02-06T13:41:37.112Z,7.83
2023-02-06T13:44:27.903Z,8.13
2023-02-06T13:47:46.230Z,7.57
2023-02-06T13:50:21.428Z,7.65
2023-02-06T13:53:29.349Z,7.71
2023-02-06T13:56:26.756Z,7.62
2023-02-06T13:59:05.971Z,7.75
2023-02-06T14:01:40.149Z,7.87
2023-02-06T14:04:25.157Z,7.88
2023-02-06T14:07:39.455Z,7.98
2023-02-06T14:10:45.544Z,8.16
2023-02-06T14:13:39.200Z,8.38
2023-02-06T14:16:33.821Z,8.45
2023-02-06T14:19:11.815Z,8.64
2023-02-06T14:22:04.437Z,8.80
2023-02-06T14:25:31.320Z,8.60
2023-02-06T14:28:16.079Z,8.43
2023-02-06T14:31:23.254Z,8.30
2023-02-06T14:34:23.527Z,8.21
2023-02-06T14:37:42.792Z,8.27
2023-02-06T14:40:29.403Z,8.15
2023-02-06T14:43:13.414Z,7.94
2023-02-06T14:46:06.010Z,7.62
2023-02-06T14:48:52.699Z,7.79
2023-02-06T14:51:39.008Z,7.86
2023-02-06T14:54:29.137Z,8.03
2023-02-06T14:57:05.903Z,7.91
2023-02-06T14:59:38.388Z,8.08
2023-02-06T15:02:26.292Z,8.08
2023-02-06T15:05:02.107Z,7.99
2023-02-06T15:07:38.630Z,8.08
2023-02-06T15:10:18.217Z,7.89
2023-02-06T15:12:53.545Z,7.95
2023-02-06T15:15:29.911Z,7.86
2023-02-06T15:18:06.477Z,7.89
2023-02-06T15:20:44.113Z,8.00
2023-02-06T15:23:59.503Z,8.09
2023-02-06T15:26:53.180Z,8.00
2023-02-06T15:29:27.030Z,8.07
2023-02-06T15:32:25.160Z,7.95
2023-02-06T15:34:59.539Z,7.86
2023-02-06T15:37:35.697Z,7.86
2023-02-06T15:40:42.209Z,7.88
2023-02-06T15:43:22.154Z,7.77
2023-02-06T15:45:58.904Z,7.70
2023-02-06T15:48:43.600Z,7.74
2023-02-06T15:51:29.989Z,7.54
2023-02-06T15:54:22.564Z,7.42
2023-02-06T15:57:20.826Z,7.47
2023-02-06T15:59:56.621Z,7.55
2023-02-06T16:02:39.600Z,7.53
2023-02-06T16:05:42.230Z,7.50
2023-02-06T16:08:27.498Z,7.41
2023-02-06T16:11:27.616Z,7.32
2023-02-06T16:14:01.924Z,7.19
2023-02-06T16:16:34.472Z,7.06
2023-02-06T16:19:29.734Z,6.96
2023-02-06T16:22:19.695Z,6.82
2023-02-06T16:25:11.448Z,6.74
2023-02-06T16:27:46.147Z,6.64
2023-02-06T16:30:33.467Z,6.64
2023-02-06T16:33:25.382Z,6.70
2023-02-06T16:35:57.928Z,6.64
2023-02-06T16:38:30.551Z,6.65
2023-02-06T16:41:03.319Z,6.50
2023-02-06T16:43:35.944Z,6.60
2023-02-06T16:46:08.553Z,6.60
2023-02-06T16:48:41.186Z,6.58
2023-02-06T16:51:21.193Z,6.53
2023-02-06T16:53:54.010Z,6.60
2023-02-06T16:56:26.748Z,6.60
2023-02-06T16:58:59.215Z,6.40
2023-02-06T17:01:32.371Z,6.48
2023-02-06T17:04:05.112Z,6.43
2023-02-06T17:06:38.177Z,6.37
2023-02-06T17:09:16.233Z,6.29
2023-02-06T17:11:48.732Z,6.15
2023-02-06T17:14:21.332Z,6.15
2023-02-06T17:16:55.689Z,6.11
2023-02-06T17:19:28.272Z,6.08
2023-02-06T17:22:00.839Z,5.98
2023-02-06T17:27:30.738Z,5.77
2023-02-06T17:30:03.650Z,5.66
2023-02-06T17:32:36.281Z,5.52
2023-02-06T17:35:09.341Z,5.46
2023-02-06T17:37:41.926Z,5.43
2023-02-06T17:40:24.172Z,5.37
2023-02-06T17:42:59.085Z,5.33
2023-02-06T17:45:32.007Z,5.32
2023-02-06T17:48:05.882Z,5.30
2023-02-06T17:50:41.221Z,5.32
2023-02-06T17:53:14.708Z,5.31
2023-02-06T17:55:47.552Z,5.30
2023-02-06T17:58:20.619Z,5.31
2023-02-06T18:00:53.075Z,5.29
2023-02-06T18:03:25.830Z,5.23
2023-02-06T18:06:02.497Z,5.16
2023-02-06T18:08:35.347Z,5.08
2023-02-06T18:11:18.167Z,4.97
2023-02-06T18:13:50.948Z,4.89
2023-02-06T18:16:28.548Z,4.77
2023-02-06T18:19:01.181Z,4.64
2023-02-06T18:21:33.743Z,4.56
2023-02-06T18:24:07.354Z,4.48
2023-02-06T18:26:39.848Z,4.38
2023-02-06T18:29:12.881Z,4.26
2023-02-06T18:31:45.759Z,4.16
2023-02-06T18:34:20.481Z,4.06
2023-02-06T18:36:53.151Z,3.95
2023-02-06T18:39:25.786Z,3.84
2023-02-06T18:42:16.909Z,3.74
2023-02-06T18:44:49.495Z,3.64
2023-02-06T18:47:22.089Z,3.61
2023-02-06T18:49:54.735Z,3.57
2023-02-06T18:52:27.318Z,3.51
2023-02-06T18:54:59.964Z,3.43
2023-02-06T18:57:32.462Z,3.31
2023-02-06T19:00:07.167Z,3.22
2023-02-06T19:02:40.199Z,3.13
2023-02-06T19:05:13.598Z,3.09
2023-02-06T19:07:53.538Z,3.04
2023-02-06T19:10:26.091Z,2.98
2023-02-06T19:12:58.596Z,2.88
2023-02-06T19:15:34.217Z,2.83
2023-02-06T19:18:07.762Z,2.77
2023-02-06T19:20:41.881Z,2.65
2023-02-06T19:23:14.359Z,2.62
2023-02-06T19:25:46.843Z,2.57
2023-02-06T19:28:19.359Z,2.53
2023-02-06T19:30:52.061Z,2.49
2023-02-06T19:33:24.618Z,2.45
2023-02-06T19:35:57.138Z,2.41
2023-02-06T19:38:29.654Z,2.37
2023-02-06T19:41:12.998Z,2.32
2023-02-06T19:43:46.137Z,2.27
2023-02-06T19:46:23.188Z,2.23
2023-02-06T19:48:56.331Z,2.17
2023-02-06T19:51:35.588Z,2.14
2023-02-06T19:54:08.570Z,2.10
2023-02-06T19:56:47.544Z,2.05
2023-02-06T19:59:24.805Z,1.99
2023-02-06T20:02:01.595Z,1.86
2023-02-06T20:04:36.277Z,1.85
2023-02-06T20:07:09.124Z,1.81
2023-02-06T20:09:42.634Z,1.77
2023-02-06T20:12:15.262Z,1.73
2023-02-06T20:14:47.899Z,1.69
2023-02-06T20:17:20.588Z,1.62
2023-02-06T20:19:53.819Z,1.53
2023-02-06T20:22:26.761Z,1.50
2023-02-06T20:24:59.496Z,1.49
2023-02-06T20:27:32.163Z,1.43
2023-02-06T20:30:05.464Z,1.41
2023-02-06T20:32:38.158Z,1.32
2023-02-06T20:35:10.997Z,1.33
2023-02-06T20:37:43.882Z,1.33
2023-02-06T20:40:16.687Z,1.29
2023-02-06T20:42:49.429Z,1.22
2023-02-06T20:45:21.990Z,1.14
2023-02-06T20:47:54.593Z,1.13
2023-02-06T20:50:29.597Z,1.11
2023-02-06T20:53:02.685Z,1.05
2023-02-06T20:55:38.994Z,1.02
2023-02-06T20:58:11.696Z,0.99
2023-02-06T21:00:44.383Z,0.96
2023-02-06T21:03:17.529Z,0.91
2023-02-06T21:05:59.148Z,0.88
2023-02-06T21:08:31.762Z,0.85
2023-02-06T21:11:04.974Z,0.82
2023-02-06T21:13:40.679Z,0.81
2023-02-06T21:16:13.755Z,0.80
2023-02-06T21:18:46.322Z,0.78
2023-02-06T21:21:19.823Z,0.79
2023-02-06T21:23:55.856Z,0.80
2023-02-06T21:26:29.886Z,0.80
2023-02-06T21:29:04.120Z,0.79
2023-02-06T21:31:38.788Z,0.79
2023-02-06T21:34:19.135Z,0.78
2023-02-06T21:36:53.281Z,0.77
2023-02-06T21:39:27.168Z,0.77
2023-02-06T21:42:01.557Z,0.77
2023-02-06T21:44:34.460Z,0.86
2023-02-06T21:47:09.721Z,0.89
2023-02-06T21:49:42.310Z,0.91
2023-02-06T21:52:14.874Z,0.97
2023-02-06T21:54:47.514Z,1.01
2023-02-06T21:57:20.131Z,1.01
2023-02-06T21:59:52.760Z,0.99
2023-02-06T22:02:25.342Z,0.97
2023-02-06T22:04:59.632Z,0.98
2023-02-06T22:07:38.001Z,0.96
2023-02-06T22:10:11.091Z,0.94
2023-02-06T22:12:48.780Z,0.89
2023-02-06T22:15:21.677Z,0.82
2023-02-06T22:17:54.298Z,0.81
2023-02-06T22:20:27.334Z,0.78
2023-02-06T22:22:59.951Z,0.71
2023-02-06T22:25:32.522Z,0.73
2023-02-06T22:28:05.111Z,0.68
2023-02-06T22:30:39.465Z,0.66
2023-02-06T22:33:13.389Z,0.62
2023-02-06T22:35:46.001Z,0.57
2023-02-06T22:38:18.554Z,0.53
2023-02-06T22:41:03.522Z,0.47
2023-02-06T22:43:38.624Z,0.42
2023-02-06T22:46:30.601Z,0.40
2023-02-06T22:49:06.900Z,0.40
2023-02-06T22:51:41.313Z,0.39
2023-02-06T22:54:14.557Z,0.37
2023-02-06T22:56:47.326Z,0.36
2023-02-06T22:59:25.441Z,0.33
2023-02-06T23:01:59.132Z,0.31
2023-02-06T23:04:36.225Z,0.29
2023-02-06T23:07:08.844Z,0.28
2023-02-06T23:09:41.619Z,0.26
2023-02-06T23:12:16.141Z,0.24
2023-02-06T23:14:48.714Z,0.22
2023-02-06T23:17:21.403Z,0.21
2023-02-06T23:19:54.144Z,0.22
2023-02-06T23:22:26.740Z,0.22
2023-02-06T23:24:59.324Z,0.26
2023-02-06T23:27:31.926Z,0.27
2023-02-06T23:30:05.777Z,0.23
2023-02-06T23:32:38.293Z,0.20
2023-02-06T23:35:11.272Z,0.12
2023-02-06T23:37:44.070Z,0.06
2023-02-06T23:40:18.049Z,0.04
2023-02-06T23:42:50.573Z,-0.06
2023-02-06T23:45:23.340Z,-0.04
2023-02-06T23:47:56.429Z,-0.08
2023-02-06T23:50:29.249Z,-0.10
2023-02-06T23:53:01.807Z,-0.13
2023-02-06T23:55:34.420Z,-0.17
2023-02-06T23:58:07.012Z,-0.20
